ROTAER AMDT 33/18

PLATAFORMA P-20 ( SBMM ) / MACAÉ, RJ 22 21 26S/040 05 025W
HD PRIV Petrobrás UTC-3 HJ 38 (125)
SBCW (CINDACTA 2)
MET -

[1] [2] [3] CMA 1,2,3,4

[1] [2] [3] (22) 2792-2034

RMK -

REGULAMENTOS PARA TRÁFEGO LOCAL
  1. OPS HEL TKOF DA AREA DE RESPONSABILIDADE DAS RDO ENCHOVA, RDO MARLIM E RDO ALBACORA DEVERAO APRESENTAR PVC NO AD DE ORIGEM NO CONTINENTE E HEL REALIZANDO FLT TRANSLADO BTN AS PLATAFORMAS PODERAO APRESENTAR PLN VIA RADIOTELEFONIA PARA AS RDO ENCHOVA, RDO MARLIM E RDO ALBACORA
COMPL -
  • [1] (22) 2792-2552
  • [2] (DLY 0900-2100)
  • [3] OPR PETROBRAS
TEMP (2)
INFOTEMP 1512/2018
MET CMA (1 A 4) HR SER DEC 22 1559-1945 23 TIL 27 0800-1330 1500-1930 DEC 28 TIL FEB 16 0815-1945

Duração: 22/12/18 15:59 a 16/02/19 23:59 UTC | Divulgação: 22/12/2018 15:57

RevogadoINFOTEMP 1046/2018
MET CMA HR SER 0815-1945

Duração: 07/11/18 00:00 a 16/02/19 23:55 UTC | Divulgação: 31/10/2018 14:42


Suplementos AIP (0)

NOTAM (1)

Z2105/18 R Z0895/18 03/12/2018 16:34
NDB MAR 375.00KHZ RETIRADO
REF: AIP-BRASIL ENR 6 L2/H2
ATCSMAC MACAE
IAC NDB A (HEL ONLY)
IAC RNAV (GNSS) 115


Nascer/Por do Sol

08:14

21:29


METAR

221900Z 04017KT CAVOK 26/23 Q1014 W///S3= 2019012221 - SPECI SBMM 221945Z 04018KT CAVOK 26/23 Q1014 W///S3=

TAF

Não disponível


Cartas (3)

IAC


SID



Rotas Preferenciais (0)